Time;durP1;ratioP1;P1;durP2;ratioP2;P2;SDS_P1;SDS_P2;PMS_P1;PMS_P2;Temp;Humidity;BMP_temperature;BMP_pressure;BME280_temperature;BME280_humidity;BME280_pressure;Samples;Min_cycle;Max_cycle;Signal;HPM_P1;HPM_P2
2021/05/24 00:01:21;;;;;;;3.55;1.35;;;;;;;11.79;100.00;100899.56;3594418;39;20052;-67
2021/05/24 00:03:48;;;;;;;2.95;1.42;;;;;;;11.78;100.00;100895.16;3593818;39;20040;-69
2021/05/24 00:06:14;;;;;;;4.10;1.20;;;;;;;11.71;100.00;100893.03;3594321;39;20087;-67
2021/05/24 00:08:40;;;;;;;2.20;1.30;;;;;;;11.73;100.00;100892.91;3594354;39;20392;-66
2021/05/24 00:11:07;;;;;;;6.18;1.60;;;;;;;11.70;100.00;100887.78;3594421;39;20064;-67
2021/05/24 00:13:33;;;;;;;6.85;1.40;;;;;;;11.62;100.00;100884.97;3593847;39;20056;-68
2021/05/24 00:15:59;;;;;;;4.80;1.60;;;;;;;11.57;100.00;100872.75;3594960;39;20044;-67
2021/05/24 00:18:26;;;;;;;3.28;1.40;;;;;;;11.60;100.00;100868.06;3594238;39;20290;-66
2021/05/24 00:20:55;;;;;;;3.85;1.33;;;;;;;11.65;100.00;100868.50;3594788;39;20063;-66
2021/05/24 00:23:22;;;;;;;4.80;1.20;;;;;;;11.63;100.00;100860.56;3592636;39;20052;-68
2021/05/24 00:25:49;;;;;;;2.70;1.13;;;;;;;11.72;100.00;100853.47;3593336;39;20100;-67
2021/05/24 00:28:15;;;;;;;2.97;1.40;;;;;;;11.82;100.00;100851.59;3594033;39;20059;-67
2021/05/24 00:30:43;;;;;;;3.47;1.33;;;;;;;11.83;100.00;100839.81;3595361;39;20048;-66
2021/05/24 00:33:10;;;;;;;3.83;1.55;;;;;;;11.83;100.00;100850.59;3593721;39;20044;-67
2021/05/24 00:35:36;;;;;;;2.95;1.30;;;;;;;11.90;100.00;100843.63;3593492;39;20032;-66
2021/05/24 00:38:05;;;;;;;6.55;1.73;;;;;;;11.95;100.00;100836.97;3594338;39;20055;-66
2021/05/24 00:40:32;;;;;;;3.47;1.50;;;;;;;11.91;100.00;100826.44;3593091;39;20062;-67
2021/05/24 00:42:58;;;;;;;2.63;1.30;;;;;;;11.99;100.00;100820.34;3592785;39;20087;-67
2021/05/24 00:45:24;;;;;;;2.80;1.17;;;;;;;12.01;100.00;100821.03;3593806;39;20048;-67
2021/05/24 00:47:51;;;;;;;4.95;1.40;;;;;;;12.06;100.00;100812.53;3593491;40;20047;-66
2021/05/24 00:50:18;;;;;;;4.68;1.15;;;;;;;12.08;100.00;100821.31;3593972;39;20048;-68
2021/05/24 00:52:44;;;;;;;5.38;1.20;;;;;;;11.99;100.00;100814.97;3592496;39;20060;-67
2021/05/24 00:55:12;;;;;;;4.05;1.35;;;;;;;12.00;100.00;100813.09;3593264;39;20055;-70
2021/05/24 00:57:40;;;;;;;4.32;1.23;;;;;;;12.11;100.00;100795.91;3593517;39;20516;-68
2021/05/24 01:00:08;;;;;;;2.42;1.40;;;;;;;12.04;100.00;100796.50;3593101;39;20048;-69
2021/05/24 01:02:34;;;;;;;2.88;1.00;;;;;;;12.09;100.00;100799.59;3593080;39;20037;-67
2021/05/24 01:05:00;;;;;;;2.53;1.20;;;;;;;11.99;100.00;100781.75;3594181;39;20048;-67
2021/05/24 01:07:26;;;;;;;3.78;1.40;;;;;;;12.05;100.00;100794.66;3593084;39;20342;-67
2021/05/24 01:09:52;;;;;;;1.77;1.20;;;;;;;12.08;100.00;100788.94;3593428;39;20046;-66
2021/05/24 01:12:19;;;;;;;3.05;1.30;;;;;;;12.05;100.00;100784.69;3593484;39;20084;-66
2021/05/24 01:14:45;;;;;;;3.22;1.40;;;;;;;12.02;100.00;100790.38;3593729;39;20040;-67
2021/05/24 01:17:11;;;;;;;4.47;1.40;;;;;;;12.06;100.00;100786.41;3593904;39;20290;-66
2021/05/24 01:19:44;;;;;;;2.75;1.27;;;;;;;12.06;100.00;100775.63;3592876;39;20129;-66
2021/05/24 01:22:16;;;;;;;2.50;1.23;;;;;;;12.08;100.00;100761.97;3592789;39;20052;-67
2021/05/24 01:24:42;;;;;;;4.97;1.70;;;;;;;12.13;100.00;100770.50;3593412;39;20047;-66
2021/05/24 01:27:08;;;;;;;4.20;1.20;;;;;;;12.11;100.00;100766.22;3593330;39;20050;-66
2021/05/24 01:29:34;;;;;;;3.67;1.10;;;;;;;12.15;100.00;100763.09;3594040;39;20089;-66
2021/05/24 01:32:00;;;;;;;2.20;1.17;;;;;;;12.16;100.00;100748.59;3594407;39;20052;-65
2021/05/24 01:34:26;;;;;;;6.53;1.40;;;;;;;12.09;100.00;100750.19;3592211;39;22975;-66
2021/05/24 01:36:52;;;;;;;2.22;1.13;;;;;;;12.16;100.00;100745.91;3578885;39;604279;-67
2021/05/24 01:39:20;;;;;;;4.30;1.10;;;;;;;12.16;100.00;100745.91;3594417;39;20056;-67
2021/05/24 01:41:46;;;;;;;3.58;1.30;;;;;;;12.18;100.00;100745.75;3595697;39;20044;-66
2021/05/24 01:44:12;;;;;;;1.92;1.10;;;;;;;12.26;100.00;100738.59;3594338;39;20076;-66
2021/05/24 01:46:38;;;;;;;3.33;1.20;;;;;;;12.30;100.00;100738.31;3595247;39;20066;-67
2021/05/24 01:49:04;;;;;;;3.65;1.25;;;;;;;12.23;100.00;100732.66;3593754;39;20058;-67
2021/05/24 01:51:30;;;;;;;3.83;1.17;;;;;;;12.28;100.00;100724.97;3595391;39;20048;-65
2021/05/24 01:53:56;;;;;;;2.63;1.30;;;;;;;12.26;100.00;100725.13;3596088;39;20045;-67
2021/05/24 01:56:23;;;;;;;3.60;1.05;;;;;;;12.25;100.00;100720.72;3595700;39;20052;-66
2021/05/24 01:58:49;;;;;;;4.43;1.20;;;;;;;12.29;100.00;100704.22;3596463;39;20099;-68
2021/05/24 02:01:15;;;;;;;3.05;1.00;;;;;;;12.30;100.00;100722.13;3596006;39;20079;-66
2021/05/24 02:03:44;;;;;;;3.40;1.30;;;;;;;12.21;100.00;100719.31;3595754;39;20044;-66
2021/05/24 02:06:10;;;;;;;3.63;1.30;;;;;;;12.20;100.00;100714.91;3593474;39;20052;-66
2021/05/24 02:08:36;;;;;;;3.13;1.30;;;;;;;12.18;100.00;100714.22;3595627;39;20042;-66
2021/05/24 02:11:03;;;;;;;3.53;1.15;;;;;;;12.16;100.00;100708.13;3595603;39;20287;-67
2021/05/24 02:13:30;;;;;;;2.20;0.90;;;;;;;12.18;100.00;100713.38;3595140;39;20152;-67
2021/05/24 02:15:56;;;;;;;1.52;1.20;;;;;;;12.21;100.00;100705.81;3596237;39;20056;-67
2021/05/24 02:18:22;;;;;;;2.65;1.13;;;;;;;12.21;100.00;100708.50;3595393;39;20433;-66
2021/05/24 02:20:48;;;;;;;4.55;1.17;;;;;;;12.25;100.00;100700.97;3594406;39;20094;-67
2021/05/24 02:23:14;;;;;;;2.88;1.08;;;;;;;12.25;100.00;100703.69;3594973;39;20047;-67
2021/05/24 02:25:40;;;;;;;4.45;1.00;;;;;;;12.31;100.00;100707.59;3596004;39;20085;-68
2021/05/24 02:28:07;;;;;;;3.08;0.90;;;;;;;12.25;100.00;100696.44;3595409;39;20440;-67
2021/05/24 02:30:34;;;;;;;2.60;0.90;;;;;;;12.31;100.00;100702.19;3597112;39;20052;-65
2021/05/24 02:33:01;;;;;;;2.08;1.02;;;;;;;12.19;100.00;100702.44;3597070;39;20071;-65
2021/05/24 02:35:27;;;;;;;3.50;1.00;;;;;;;12.24;100.00;100707.38;3596202;39;20054;-66
2021/05/24 02:37:54;;;;;;;2.47;1.08;;;;;;;12.23;100.00;100698.44;3596501;39;20321;-65
2021/05/24 02:40:22;;;;;;;3.53;1.30;;;;;;;12.30;100.00;100697.81;3594543;39;20048;-66
2021/05/24 02:42:48;;;;;;;2.38;1.02;;;;;;;12.30;100.00;100711.31;3596217;39;20132;-66
2021/05/24 02:45:19;;;;;;;5.40;1.27;;;;;;;12.26;100.00;100710.75;3596723;39;20570;-66
2021/05/24 02:47:47;;;;;;;4.10;1.38;;;;;;;12.21;100.00;100705.81;3597375;39;20051;-66
2021/05/24 02:50:16;;;;;;;6.73;1.60;;;;;;;12.27;100.00;100699.81;3597131;39;20109;-66
2021/05/24 02:52:42;;;;;;;3.15;1.30;;;;;;;12.31;100.00;100691.41;3596756;39;20351;-68
2021/05/24 02:55:09;;;;;;;3.28;1.20;;;;;;;12.26;100.00;100706.22;3596687;39;20056;-67
2021/05/24 02:57:35;;;;;;;1.83;1.20;;;;;;;12.27;100.00;100699.81;3596956;39;20036;-69
2021/05/24 03:00:01;;;;;;;4.55;1.10;;;;;;;12.23;100.00;100695.75;3594812;39;20059;-66
2021/05/24 03:02:29;;;;;;;1.35;0.90;;;;;;;12.19;100.00;100688.94;3596341;39;20050;-67
2021/05/24 03:04:55;;;;;;;3.53;1.00;;;;;;;12.19;100.00;100677.28;3596010;39;20073;-67
2021/05/24 03:07:22;;;;;;;3.13;1.08;;;;;;;12.14;100.00;100685.81;3595999;39;20112;-67
2021/05/24 03:09:48;;;;;;;2.40;1.20;;;;;;;12.13;100.00;100688.69;3596756;39;20044;-68
2021/05/24 03:12:36;;;;;;;3.83;0.95;;;;;;;12.11;100.00;100686.13;3628622;22;20066;-67
2021/05/24 03:15:02;;;;;;;1.85;1.02;;;;;;;12.15;100.00;100679.44;3589940;39;20050;-67
2021/05/24 03:17:28;;;;;;;1.92;0.90;;;;;;;12.08;100.00;100664.84;3591284;39;20479;-68
2021/05/24 03:19:55;;;;;;;3.05;1.13;;;;;;;12.05;100.00;100659.75;3590634;39;20040;-66
2021/05/24 03:22:21;;;;;;;3.38;1.20;;;;;;;11.99;100.00;100674.69;3590147;39;20062;-66
2021/05/24 03:24:47;;;;;;;3.42;1.30;;;;;;;12.02;100.00;100670.84;3591415;39;20063;-66
2021/05/24 03:27:13;;;;;;;4.15;1.35;;;;;;;12.02;100.00;100687.88;3590585;39;20056;-66
2021/05/24 03:29:39;;;;;;;1.58;1.00;;;;;;;12.09;100.00;100688.97;3592088;40;20053;-65
2021/05/24 03:32:06;;;;;;;1.52;0.90;;;;;;;12.04;100.00;100685.91;3591206;39;20633;-65
2021/05/24 03:34:31;;;;;;;3.53;1.23;;;;;;;12.02;100.00;100665.47;3589675;39;20055;-68
2021/05/24 03:36:58;;;;;;;4.18;1.17;;;;;;;11.97;100.00;100668.63;3591752;39;20055;-66
2021/05/24 03:39:25;;;;;;;2.92;1.25;;;;;;;12.01;100.00;100680.78;3591679;39;20053;-69
2021/05/24 03:41:51;;;;;;;3.78;1.08;;;;;;;11.99;100.00;100676.56;3591552;39;20044;-66
2021/05/24 03:44:17;;;;;;;3.15;1.25;;;;;;;12.00;100.00;100659.34;3590851;39;20457;-66
2021/05/24 03:46:43;;;;;;;6.47;1.45;;;;;;;11.95;100.00;100670.59;3590377;39;20056;-67
2021/05/24 03:49:09;;;;;;;2.72;1.10;;;;;;;11.90;100.00;100668.31;3591791;39;20414;-67
2021/05/24 03:51:35;;;;;;;3.67;1.27;;;;;;;11.98;100.00;100675.69;3590867;39;20052;-66
2021/05/24 03:54:02;;;;;;;2.25;1.10;;;;;;;12.03;100.00;100664.47;3591241;39;20086;-68
2021/05/24 03:56:28;;;;;;;2.10;1.10;;;;;;;12.00;100.00;100683.63;3591283;39;20062;-67
2021/05/24 03:58:54;;;;;;;4.15;1.30;;;;;;;12.02;100.00;100684.34;3590783;39;20322;-66
2021/05/24 04:01:20;;;;;;;3.05;1.13;;;;;;;12.06;100.00;100675.81;3591433;39;21663;-67
2021/05/24 04:06:41;;;;;;;3.03;1.02;;;;;;;12.04;100.00;100688.59;3597526;22;20048;-67
2021/05/24 04:09:07;;;;;;;3.95;1.10;;;;;;;12.03;100.00;100686.06;3599808;39;20422;-66
2021/05/24 04:11:34;;;;;;;4.63;1.50;;;;;;;12.05;100.00;100681.34;3600679;39;20056;-67
2021/05/24 04:14:00;;;;;;;2.50;1.20;;;;;;;12.03;100.00;100678.78;3601155;39;20052;-67
2021/05/24 04:16:26;;;;;;;1.98;0.90;;;;;;;12.03;100.00;100677.97;3600336;39;20092;-68
2021/05/24 04:18:52;;;;;;;3.00;1.02;;;;;;;12.01;100.00;100664.59;3601131;39;20386;-69
2021/05/24 04:21:18;;;;;;;2.33;1.10;;;;;;;11.97;100.00;100665.06;3600573;39;20055;-67
2021/05/24 04:23:45;;;;;;;5.13;1.20;;;;;;;12.03;100.00;100661.78;3598610;39;20056;-68
2021/05/24 04:26:14;;;;;;;2.33;0.80;;;;;;;12.03;100.00;100664.47;3600919;39;20316;-69
2021/05/24 04:28:40;;;;;;;2.80;1.23;;;;;;;11.96;100.00;100660.69;3600073;39;20047;-68
2021/05/24 04:31:06;;;;;;;4.28;1.35;;;;;;;11.97;100.00;100667.75;3600083;39;20056;-69
2021/05/24 04:33:32;;;;;;;4.40;0.98;;;;;;;11.99;100.00;100668.47;3599939;39;20128;-68
2021/05/24 04:38:28;;;;;;;2.65;1.30;;;;;;;12.07;100.00;100669.41;3627373;22;20491;-68
2021/05/24 04:40:54;;;;;;;3.67;1.40;;;;;;;12.03;100.00;100672.56;3595424;39;20101;-68
2021/05/24 04:43:26;;;;;;;4.18;1.40;;;;;;;12.07;100.00;100673.94;3595033;39;20096;-67
2021/05/24 04:45:52;;;;;;;4.82;1.00;;;;;;;12.03;100.00;100676.09;3594940;39;20063;-69
2021/05/24 04:48:18;;;;;;;2.70;1.15;;;;;;;12.03;100.00;100678.78;3595411;39;20075;-67
2021/05/24 04:50:44;;;;;;;3.38;1.30;;;;;;;12.05;100.00;100676.78;3595883;39;20036;-66
2021/05/24 04:53:10;;;;;;;2.03;1.10;;;;;;;12.10;100.00;100679.03;3594653;39;20055;-68
2021/05/24 04:55:36;;;;;;;4.78;1.45;;;;;;;11.98;100.00;100688.34;3594631;40;20064;-67
2021/05/24 04:58:02;;;;;;;3.40;1.10;;;;;;;11.76;100.00;100687.69;3594428;39;20396;-68
2021/05/24 05:00:31;;;;;;;3.00;1.20;;;;;;;11.58;100.00;100701.94;3595482;40;20054;-67
2021/05/24 05:02:57;;;;;;;2.30;1.50;;;;;;;11.42;100.00;100647.78;3594036;39;20067;-68
2021/05/24 05:05:22;;;;;;;3.13;1.42;;;;;;;11.25;100.00;100691.66;3594697;39;20059;-67
2021/05/24 05:07:48;;;;;;;2.55;1.65;;;;;;;11.27;100.00;100687.00;3595369;39;20056;-68
2021/05/24 05:12:43;;;;;;;4.57;1.33;;;;;;;11.07;100.00;100711.28;3606429;22;20069;-68
2021/05/24 05:15:10;;;;;;;2.70;1.30;;;;;;;10.95;100.00;100705.16;3604915;39;20043;-69
2021/05/24 05:17:37;;;;;;;2.90;1.30;;;;;;;10.83;100.00;100717.91;3605403;39;20065;-68
2021/05/24 05:20:04;;;;;;;2.28;1.33;;;;;;;10.72;100.00;100715.38;3605261;39;20049;-68
2021/05/24 05:22:30;;;;;;;4.05;1.60;;;;;;;10.74;100.00;100731.38;3604938;39;20395;-67
2021/05/24 05:24:56;;;;;;;5.15;1.55;;;;;;;10.62;100.00;100726.13;3604864;39;20101;-68
2021/05/24 05:27:22;;;;;;;2.97;1.50;;;;;;;10.62;100.00;100727.97;3605350;39;20324;-67
2021/05/24 05:29:48;;;;;;;6.55;1.67;;;;;;;10.61;100.00;100723.56;3606308;39;20399;-68
2021/05/24 05:32:14;;;;;;;3.15;1.80;;;;;;;10.60;100.00;100728.13;3605241;39;20051;-67
2021/05/24 05:34:41;;;;;;;4.90;1.80;;;;;;;10.61;100.00;100723.56;3604583;39;20331;-68
2021/05/24 05:37:07;;;;;;;3.13;1.30;;;;;;;10.57;100.00;100728.41;3605684;39;20093;-68
2021/05/24 05:39:33;;;;;;;2.35;1.40;;;;;;;10.60;100.00;100719.16;3605471;39;20059;-67
2021/05/24 05:41:59;;;;;;;3.47;1.95;;;;;;;10.55;100.00;100713.38;3605220;39;20084;-69
2021/05/24 05:44:25;;;;;;;4.50;1.85;;;;;;;10.53;100.00;100700.06;3604491;39;20055;-68
2021/05/24 05:46:52;;;;;;;3.92;2.10;;;;;;;10.60;100.00;100697.63;3605539;39;20032;-67
2021/05/24 05:49:17;;;;;;;3.25;1.60;;;;;;;10.57;100.00;100704.19;3604830;39;20040;-68
2021/05/24 05:51:44;;;;;;;8.00;2.17;;;;;;;10.49;100.00;100704.00;3605096;39;20050;-69
2021/05/24 05:54:10;;;;;;;2.40;1.77;;;;;;;10.59;100.00;100704.03;3602448;39;20317;-68
2021/05/24 05:56:36;;;;;;;3.60;1.75;;;;;;;10.65;100.00;100703.47;3605281;39;20040;-67
2021/05/24 05:59:02;;;;;;;2.92;1.58;;;;;;;10.65;100.00;100701.63;3604999;39;20055;-67
2021/05/24 06:01:28;;;;;;;4.53;1.90;;;;;;;10.71;100.00;100700.22;3604769;39;20076;-66
2021/05/24 06:03:54;;;;;;;3.15;1.50;;;;;;;10.74;100.00;100696.38;3605709;39;20031;-67
2021/05/24 06:06:20;;;;;;;4.65;1.60;;;;;;;10.87;100.00;100697.78;3605716;39;20419;-68
2021/05/24 06:08:47;;;;;;;4.00;1.85;;;;;;;10.89;100.00;100694.97;3606065;39;20381;-69
2021/05/24 06:11:13;;;;;;;5.00;1.48;;;;;;;10.97;100.00;100694.28;3605752;39;20091;-70
2021/05/24 06:13:39;;;;;;;3.45;1.80;;;;;;;11.02;100.00;100700.06;3605413;39;20043;-67
2021/05/24 06:18:30;;;;;;;3.80;1.58;;;;;;;11.17;100.00;100704.03;3641764;22;20047;-68
2021/05/24 06:20:56;;;;;;;4.30;1.50;;;;;;;11.05;100.00;100700.63;3600369;39;20108;-67
2021/05/24 06:23:22;;;;;;;2.03;1.35;;;;;;;11.15;100.00;100697.91;3599416;39;20075;-67
2021/05/24 06:25:49;;;;;;;2.08;1.42;;;;;;;11.21;100.00;100693.81;3600835;39;20364;-67
2021/05/24 06:28:15;;;;;;;2.92;1.65;;;;;;;11.22;100.00;100699.03;3599791;39;20070;-67
2021/05/24 06:30:41;;;;;;;3.80;1.65;;;;;;;11.26;100.00;100707.69;3599909;39;20112;-67
2021/05/24 06:33:08;;;;;;;4.40;1.58;;;;;;;11.24;100.00;100701.59;3599395;39;20150;-68
2021/05/24 06:35:34;;;;;;;4.32;1.63;;;;;;;11.28;100.00;100694.94;3599793;39;20056;-67
2021/05/24 06:38:00;;;;;;;5.45;1.63;;;;;;;11.33;100.00;100694.50;3599941;39;20366;-68
2021/05/24 06:40:26;;;;;;;6.25;1.55;;;;;;;11.25;100.00;100697.03;3599327;39;20076;-68
2021/05/24 06:42:53;;;;;;;2.33;1.40;;;;;;;11.30;100.00;100694.78;3599815;39;20056;-68
2021/05/24 06:45:19;;;;;;;2.67;1.30;;;;;;;11.38;100.00;100694.88;3599341;39;20048;-70
2021/05/24 06:47:46;;;;;;;2.17;1.30;;;;;;;11.34;100.00;100682.72;3600672;39;20287;-67
2021/05/24 06:50:14;;;;;;;2.47;1.30;;;;;;;11.30;100.00;100697.47;3599336;39;20402;-67
2021/05/24 06:52:41;;;;;;;4.10;1.30;;;;;;;11.28;100.00;100696.75;3599623;39;20055;-66
2021/05/24 06:55:08;;;;;;;1.58;1.05;;;;;;;11.22;100.00;100687.44;3600330;39;20074;-67
2021/05/24 06:57:33;;;;;;;2.60;1.10;;;;;;;11.20;100.00;100690.28;3599688;39;20382;-67
2021/05/24 07:00:00;;;;;;;2.42;1.13;;;;;;;11.27;100.00;100697.78;3600995;39;20051;-67
2021/05/24 07:02:26;;;;;;;4.28;1.10;;;;;;;11.34;100.00;100693.50;3592504;39;20048;-66
2021/05/24 07:04:52;;;;;;;3.40;1.17;;;;;;;11.19;100.00;100691.25;3596939;39;20391;-67
2021/05/24 07:07:18;;;;;;;1.95;1.13;;;;;;;11.27;100.00;100692.38;3599677;39;20048;-66
2021/05/24 07:09:44;;;;;;;2.70;1.20;;;;;;;11.34;100.00;100682.72;3600462;39;20386;-67
2021/05/24 07:12:10;;;;;;;2.28;1.00;;;;;;;11.31;100.00;100683.03;3598406;39;20382;-67
2021/05/24 07:14:37;;;;;;;2.20;0.93;;;;;;;11.38;100.00;100679.59;3599951;39;20051;-68
2021/05/24 07:20:30;;;;;;;2.08;1.08;;;;;;;11.35;100.00;100690.66;3534700;40;20083;-68
2021/05/24 07:22:56;;;;;;;2.60;0.90;;;;;;;11.32;100.00;100687.41;3537166;40;20120;-67
2021/05/24 07:25:22;;;;;;;3.15;1.00;;;;;;;11.30;100.00;100682.16;3537501;40;20075;-67
2021/05/24 07:27:48;;;;;;;2.60;0.98;;;;;;;11.42;100.00;100685.53;3544176;40;20145;-66
2021/05/24 07:30:15;;;;;;;1.95;0.82;;;;;;;11.54;100.00;100689.75;3541020;40;20046;-67
2021/05/24 07:32:41;;;;;;;2.25;1.08;;;;;;;11.56;100.00;100693.16;3542896;40;20337;-67
2021/05/24 07:35:08;;;;;;;3.15;1.00;;;;;;;11.70;100.00;100682.88;3543898;40;20056;-68
2021/05/24 07:37:35;;;;;;;1.88;1.00;;;;;;;11.78;100.00;100685.69;3545496;40;20038;-67
2021/05/24 07:40:01;;;;;;;2.05;0.95;;;;;;;12.00;100.00;100680.94;3546380;40;20046;-68
2021/05/24 07:42:27;;;;;;;2.63;1.20;;;;;;;11.84;100.00;100677.00;3546230;40;20058;-67
2021/05/24 07:44:53;;;;;;;1.80;0.98;;;;;;;11.91;100.00;100675.41;3545337;40;20066;-69
2021/05/24 07:47:19;;;;;;;3.85;1.00;;;;;;;12.02;100.00;100677.09;3536678;40;20050;-68
2021/05/24 07:49:46;;;;;;;2.92;1.10;;;;;;;12.07;100.00;100680.22;3537517;40;20075;-69
2021/05/24 07:52:12;;;;;;;3.42;0.95;;;;;;;12.09;100.00;100674.66;3536241;40;20057;-68
2021/05/24 07:54:39;;;;;;;1.60;1.10;;;;;;;12.23;100.00;100671.47;3536188;40;20406;-69
2021/05/24 07:57:06;;;;;;;1.45;0.90;;;;;;;12.12;100.00;100679.75;3536637;40;20090;-70
2021/05/24 07:59:32;;;;;;;3.05;1.25;;;;;;;12.17;100.00;100677.44;3537000;40;20059;-67
2021/05/24 08:01:59;;;;;;;3.20;1.00;;;;;;;12.07;100.00;100673.94;3535948;40;20492;-67
2021/05/24 08:04:26;;;;;;;3.42;1.17;;;;;;;12.08;100.00;100667.56;3539576;40;20055;-69
2021/05/24 08:06:52;;;;;;;2.47;1.10;;;;;;;11.99;100.00;100676.56;3538613;40;20043;-69
2021/05/24 08:09:18;;;;;;;1.35;0.75;;;;;;;11.88;100.00;100681.13;3541262;40;20038;-69
2021/05/24 08:11:44;;;;;;;3.05;1.10;;;;;;;11.90;100.00;100672.88;3544376;40;20407;-68
2021/05/24 08:14:14;;;;;;;2.35;1.02;;;;;;;11.80;100.00;100675.59;3543349;40;20064;-68
2021/05/24 08:16:40;;;;;;;2.67;1.25;;;;;;;11.65;100.00;100679.78;3544181;40;20133;-66
2021/05/24 08:19:06;;;;;;;5.45;1.20;;;;;;;11.57;100.00;100684.06;3545056;40;20312;-68
2021/05/24 08:21:32;;;;;;;1.70;0.90;;;;;;;11.53;100.00;100674.56;3537784;40;20043;-68
2021/05/24 08:23:58;;;;;;;3.55;1.20;;;;;;;11.42;100.00;100671.22;3538524;40;20043;-68
2021/05/24 08:26:24;;;;;;;5.13;1.20;;;;;;;11.55;100.00;100675.25;3540370;40;20055;-68
2021/05/24 08:28:51;;;;;;;4.95;1.30;;;;;;;11.57;100.00;100672.44;3536285;40;20066;-68
2021/05/24 08:31:17;;;;;;;2.35;1.00;;;;;;;11.58;100.00;100674.97;3540775;40;20062;-69
2021/05/24 08:33:43;;;;;;;2.58;1.10;;;;;;;11.28;100.00;100665.28;3545777;40;20487;-68
2021/05/24 08:36:09;;;;;;;3.40;1.30;;;;;;;11.29;100.00;100674.22;3536084;40;20035;-68
2021/05/24 08:38:36;;;;;;;2.72;1.30;;;;;;;11.37;100.00;100682.44;3541221;40;20702;-68
2021/05/24 08:41:07;;;;;;;3.17;1.20;;;;;;;11.29;100.00;100674.22;3541677;40;20046;-68
2021/05/24 08:43:33;;;;;;;2.72;1.42;;;;;;;11.28;100.00;100677.91;3540372;40;20336;-68
2021/05/24 08:46:00;;;;;;;5.35;1.40;;;;;;;11.25;100.00;100678.19;3543607;40;20148;-68
2021/05/24 08:48:26;;;;;;;3.28;1.27;;;;;;;11.38;100.00;100674.19;3544133;40;20051;-68
2021/05/24 08:50:53;;;;;;;3.35;1.40;;;;;;;11.36;100.00;100675.34;3539136;40;20035;-68
2021/05/24 08:53:19;;;;;;;3.90;1.50;;;;;;;11.27;100.00;100676.22;3545720;40;20046;-69
2021/05/24 08:55:45;;;;;;;3.45;1.60;;;;;;;11.28;100.00;100676.06;3542416;40;20062;-68
2021/05/24 08:58:13;;;;;;;2.28;1.27;;;;;;;11.51;100.00;100676.59;3545980;40;20381;-68
2021/05/24 09:00:39;;;;;;;2.42;1.40;;;;;;;11.54;100.00;100673.59;3543025;40;20061;-68
2021/05/24 09:03:16;;;;;;;1.95;1.38;;;;;;;11.46;100.00;100673.47;3535387;40;20035;-68
2021/05/24 09:05:43;;;;;;;2.20;1.25;;;;;;;11.49;100.00;100666.94;3540487;40;20066;-68
2021/05/24 09:08:09;;;;;;;2.30;1.40;;;;;;;11.60;100.00;100663.19;3539557;40;20105;-69
2021/05/24 09:10:36;;;;;;;3.53;1.50;;;;;;;11.68;100.00;100671.41;3536838;40;20414;-69
2021/05/24 09:13:08;;;;;;;4.45;1.77;;;;;;;11.92;100.00;100666.34;3542162;40;20058;-69
2021/05/24 09:15:36;;;;;;;3.83;1.50;;;;;;;12.07;100.00;100657.75;3537590;40;20039;-69
2021/05/24 09:18:03;;;;;;;3.83;1.48;;;;;;;12.20;100.00;100660.09;3535982;40;20054;-68
2021/05/24 09:20:36;;;;;;;6.95;1.65;;;;;;;12.17;100.00;100669.34;3539783;40;20065;-68
2021/05/24 09:23:16;;;;;;;2.25;1.60;;;;;;;12.17;100.00;100671.19;3537703;40;20058;-68
2021/05/24 09:25:54;;;;;;;4.97;1.50;;;;;;;12.21;100.00;100665.34;3542199;40;20079;-69
2021/05/24 09:28:42;;;;;;;3.45;1.50;;;;;;;12.05;100.00;100660.59;3539089;40;20160;-68
2021/05/24 09:31:11;;;;;;;3.72;1.65;;;;;;;11.96;100.00;100666.06;3539225;40;20058;-68
2021/05/24 09:33:39;;;;;;;3.13;1.40;;;;;;;11.99;100.00;100660.38;3536148;40;20050;-69
2021/05/24 09:36:07;;;;;;;4.57;1.55;;;;;;;12.09;100.00;100662.00;3537267;40;20386;-69
2021/05/24 09:41:05;;;;;;;1.63;1.48;;;;;;;12.10;100.00;100662.84;3618064;22;20406;-69
2021/05/24 09:43:34;;;;;;;3.58;1.65;;;;;;;11.98;100.00;100664.06;3589369;39;20082;-69
2021/05/24 09:46:13;;;;;;;2.95;1.67;;;;;;;12.31;100.00;100662.59;3589464;39;20390;-69
2021/05/24 09:48:40;;;;;;;4.07;1.48;;;;;;;12.40;100.00;100658.13;3590248;39;20056;-70
2021/05/24 09:51:09;;;;;;;3.05;1.50;;;;;;;12.49;100.00;100662.59;3587115;39;20040;-71
2021/05/24 09:53:35;;;;;;;4.15;1.70;;;;;;;12.16;100.00;100661.41;3589085;39;20138;-69
2021/05/24 09:56:06;;;;;;;4.75;1.75;;;;;;;12.13;100.00;100678.75;3585612;39;20049;-69
2021/05/24 09:58:33;;;;;;;2.97;1.63;;;;;;;11.98;100.00;100675.69;3586931;39;20088;-68
2021/05/24 10:01:13;;;;;;;2.20;1.60;;;;;;;12.06;100.00;100666.88;3586701;39;20502;-69
2021/05/24 10:03:41;;;;;;;3.55;1.80;;;;;;;11.93;100.00;100672.59;3584471;39;20076;-68
2021/05/24 10:06:08;;;;;;;3.88;2.00;;;;;;;11.83;100.00;100672.59;3583685;39;20052;-69
2021/05/24 10:08:34;;;;;;;6.10;1.70;;;;;;;11.96;100.00;100666.06;3581996;40;20423;-68
2021/05/24 10:11:01;;;;;;;3.65;1.92;;;;;;;12.23;100.00;100665.19;3588994;39;20052;-69
2021/05/24 10:13:28;;;;;;;5.50;2.22;;;;;;;12.15;100.00;100660.56;3585810;39;20048;-68
2021/05/24 10:15:59;;;;;;;3.88;2.10;;;;;;;12.27;100.00;100658.50;3591362;39;20285;-67
2021/05/24 10:18:25;;;;;;;2.85;1.70;;;;;;;12.27;100.00;100659.34;3591185;39;20098;-69
2021/05/24 10:20:52;;;;;;;4.43;2.20;;;;;;;12.50;100.00;100658.91;3590247;39;20080;-67
2021/05/24 10:23:21;;;;;;;3.50;1.80;;;;;;;12.22;100.00;100658.09;3588355;39;20052;-67
2021/05/24 10:25:47;;;;;;;4.82;1.92;;;;;;;12.32;100.00;100660.72;3590863;39;20041;-68
2021/05/24 10:28:14;;;;;;;2.45;1.58;;;;;;;12.07;100.00;100658.63;3590145;39;20037;-67
2021/05/24 10:30:41;;;;;;;3.95;1.90;;;;;;;12.19;100.00;100656.56;3590034;39;20447;-69
2021/05/24 10:33:13;;;;;;;3.05;2.25;;;;;;;12.17;100.00;100660.41;3588557;39;20055;-68
2021/05/24 10:35:42;;;;;;;2.42;1.90;;;;;;;12.07;100.00;100652.34;3590477;39;20414;-67
2021/05/24 10:38:28;;;;;;;3.25;2.03;;;;;;;12.12;100.00;100655.47;3590402;39;20049;-68
2021/05/24 10:41:05;;;;;;;3.58;2.25;;;;;;;12.11;100.00;100667.25;3597658;39;20377;-69
2021/05/24 10:43:45;;;;;;;2.80;2.28;;;;;;;12.33;100.00;100651.63;3599182;39;20063;-67
2021/05/24 10:46:35;;;;;;;2.83;1.90;;;;;;;12.48;100.00;100655.50;3600648;39;20043;-68
2021/05/24 10:49:04;;;;;;;3.78;2.00;;;;;;;12.68;100.00;100644.56;3600442;39;20052;-70
2021/05/24 10:52:10;;;;;;;4.18;1.90;;;;;;;12.93;100.00;100653.72;3600099;39;20477;-69
2021/05/24 10:54:43;;;;;;;4.10;2.10;;;;;;;13.10;100.00;100658.25;3601095;39;20298;-68
2021/05/24 10:57:15;;;;;;;2.92;2.03;;;;;;;13.03;100.00;100646.38;3601381;39;20056;-67
2021/05/24 10:59:52;;;;;;;3.38;1.90;;;;;;;12.84;100.00;100650.09;3602318;39;20508;-67
2021/05/24 11:02:26;;;;;;;2.60;1.90;;;;;;;13.24;100.00;100640.59;3601031;39;20052;-65
2021/05/24 11:04:55;;;;;;;3.58;2.28;;;;;;;13.36;100.00;100643.91;3601633;39;20055;-67
2021/05/24 11:07:30;;;;;;;2.75;1.98;;;;;;;12.82;100.00;100641.28;3602133;39;20063;-67
2021/05/24 11:10:30;;;;;;;3.63;1.80;;;;;;;13.02;100.00;100647.38;3601624;39;20044;-69
2021/05/24 11:13:26;;;;;;;3.20;1.80;;;;;;;13.02;100.00;100649.22;3600879;39;20065;-67
2021/05/24 11:15:53;;;;;;;2.72;2.00;;;;;;;12.88;100.00;100647.91;3602537;39;20056;-67
2021/05/24 11:18:24;;;;;;;2.72;1.83;;;;;;;12.77;100.00;100643.63;3601197;39;20055;-67
2021/05/24 11:20:55;;;;;;;3.20;1.50;;;;;;;12.54;100.00;100643.22;3601441;39;20313;-67
2021/05/24 11:26:31;;;;;;;3.25;1.30;;;;;;;12.76;100.00;100641.91;3600880;39;20046;-67
2021/05/24 11:29:01;;;;;;;1.27;0.88;;;;;;;12.73;100.00;100631.44;3600853;39;20125;-67
2021/05/24 11:31:29;;;;;;;;;;;;;;;13.06;100.00;100645.19;3601091;39;20074;-67
2021/05/24 11:33:57;;;;;;;1.47;1.10;;;;;;;13.15;100.00;100633.44;3600303;39;19940;-68
2021/05/24 11:36:51;;;;;;;2.92;1.30;;;;;;;13.05;100.00;100638.09;3599239;39;20357;-68
2021/05/24 11:39:20;;;;;;;1.90;1.30;;;;;;;12.99;100.00;100634.16;3600395;39;20040;-68